sensor_id;sensor_type;location;lat;lon;timestamp;temperature;humidity
27016;DHT22;14557;0.000;0.000;2022-08-11T00:00:33;26.40;49.90
27016;DHT22;14557;0.000;0.000;2022-08-11T00:03:02;26.40;50.00
27016;DHT22;14557;0.000;0.000;2022-08-11T00:05:28;26.40;50.00
27016;DHT22;14557;0.000;0.000;2022-08-11T00:07:55;26.30;49.90
27016;DHT22;14557;0.000;0.000;2022-08-11T00:10:22;26.30;50.00
27016;DHT22;14557;0.000;0.000;2022-08-11T00:12:55;26.30;50.00
27016;DHT22;14557;0.000;0.000;2022-08-11T00:15:22;26.20;50.10
27016;DHT22;14557;0.000;0.000;2022-08-11T00:17:48;26.30;50.20
27016;DHT22;14557;0.000;0.000;2022-08-11T00:20:14;26.20;50.30
27016;DHT22;14557;0.000;0.000;2022-08-11T00:22:42;26.20;50.30
27016;DHT22;14557;0.000;0.000;2022-08-11T00:25:15;26.20;50.30
27016;DHT22;14557;0.000;0.000;2022-08-11T00:27:41;26.20;50.40
27016;DHT22;14557;0.000;0.000;2022-08-11T00:30:07;26.20;50.40
27016;DHT22;14557;0.000;0.000;2022-08-11T00:32:34;26.10;50.40
27016;DHT22;14557;0.000;0.000;2022-08-11T00:35:01;26.10;50.70
27016;DHT22;14557;0.000;0.000;2022-08-11T00:37:27;26.10;50.70
27016;DHT22;14557;0.000;0.000;2022-08-11T00:39:54;26.10;50.70
27016;DHT22;14557;0.000;0.000;2022-08-11T00:55:24;26.00;50.60
27016;DHT22;14557;0.000;0.000;2022-08-11T01:00:48;26.00;50.60
27016;DHT22;14557;0.000;0.000;2022-08-11T01:11:06;25.90;51.30
27016;DHT22;14557;0.000;0.000;2022-08-11T01:16:13;25.90;50.70
27016;DHT22;14557;0.000;0.000;2022-08-11T01:37:39;25.70;50.60
27016;DHT22;14557;0.000;0.000;2022-08-11T01:40:19;25.70;50.60
27016;DHT22;14557;0.000;0.000;2022-08-11T01:46:14;25.70;50.60
27016;DHT22;14557;0.000;0.000;2022-08-11T01:48:43;25.70;50.60
27016;DHT22;14557;0.000;0.000;2022-08-11T01:51:19;25.70;50.60
27016;DHT22;14557;0.000;0.000;2022-08-11T01:53:49;25.70;50.60
27016;DHT22;14557;0.000;0.000;2022-08-11T02:14:45;25.50;50.60
27016;DHT22;14557;0.000;0.000;2022-08-11T02:17:16;25.50;50.60
27016;DHT22;14557;0.000;0.000;2022-08-11T02:19:48;25.50;50.70
27016;DHT22;14557;0.000;0.000;2022-08-11T02:23:10;25.50;50.70
27016;DHT22;14557;0.000;0.000;2022-08-11T02:25:49;25.50;50.70
27016;DHT22;14557;0.000;0.000;2022-08-11T02:28:22;25.50;50.70
27016;DHT22;14557;0.000;0.000;2022-08-11T02:31:11;25.50;50.80
27016;DHT22;14557;0.000;0.000;2022-08-11T02:34:02;25.50;50.70
27016;DHT22;14557;0.000;0.000;2022-08-11T02:36:35;25.50;50.80
27016;DHT22;14557;0.000;0.000;2022-08-11T02:39:06;25.50;50.90
27016;DHT22;14557;0.000;0.000;2022-08-11T02:41:37;25.40;50.80
27016;DHT22;14557;0.000;0.000;2022-08-11T02:47:33;25.50;50.70
27016;DHT22;14557;0.000;0.000;2022-08-11T02:50:25;25.40;50.70
27016;DHT22;14557;0.000;0.000;2022-08-11T02:52:55;25.40;50.60
27016;DHT22;14557;0.000;0.000;2022-08-11T02:55:37;25.40;50.70
27016;DHT22;14557;0.000;0.000;2022-08-11T02:58:12;25.50;50.70
27016;DHT22;14557;0.000;0.000;2022-08-11T03:00:45;25.40;50.70
27016;DHT22;14557;0.000;0.000;2022-08-11T03:05:43;25.40;50.70
27016;DHT22;14557;0.000;0.000;2022-08-11T03:14:18;25.40;50.70
27016;DHT22;14557;0.000;0.000;2022-08-11T03:17:14;25.40;50.70
27016;DHT22;14557;0.000;0.000;2022-08-11T03:24:57;25.40;50.80
27016;DHT22;14557;0.000;0.000;2022-08-11T03:30:07;25.30;50.70
27016;DHT22;14557;0.000;0.000;2022-08-11T03:32:36;25.30;50.70
27016;DHT22;14557;0.000;0.000;2022-08-11T03:35:06;25.30;50.60
27016;DHT22;14557;0.000;0.000;2022-08-11T03:37:40;25.30;50.60
27016;DHT22;14557;0.000;0.000;2022-08-11T03:40:31;25.30;50.60
27016;DHT22;14557;0.000;0.000;2022-08-11T03:45:56;25.30;50.60
27016;DHT22;14557;0.000;0.000;2022-08-11T04:22:16;25.10;50.70
27016;DHT22;14557;0.000;0.000;2022-08-11T04:48:53;25.10;50.80
27016;DHT22;14557;0.000;0.000;2022-08-11T04:51:47;25.10;50.70
27016;DHT22;14557;0.000;0.000;2022-08-11T05:09:26;25.00;50.70
27016;DHT22;14557;0.000;0.000;2022-08-11T05:17:33;25.00;50.70
27016;DHT22;14557;0.000;0.000;2022-08-11T05:20:56;25.00;50.80
27016;DHT22;14557;0.000;0.000;2022-08-11T05:23:42;25.00;50.80
27016;DHT22;14557;0.000;0.000;2022-08-11T05:26:27;25.00;50.80
27016;DHT22;14557;0.000;0.000;2022-08-11T05:29:23;25.00;50.80
27016;DHT22;14557;0.000;0.000;2022-08-11T05:32:08;24.90;50.80
27016;DHT22;14557;0.000;0.000;2022-08-11T05:34:54;24.90;50.80
27016;DHT22;14557;0.000;0.000;2022-08-11T05:39:50;24.90;50.90
27016;DHT22;14557;0.000;0.000;2022-08-11T05:42:37;24.90;50.90
27016;DHT22;14557;0.000;0.000;2022-08-11T05:45:25;24.90;50.80
27016;DHT22;14557;0.000;0.000;2022-08-11T05:48:09;24.90;50.80
27016;DHT22;14557;0.000;0.000;2022-08-11T05:50:54;24.90;50.90
27016;DHT22;14557;0.000;0.000;2022-08-11T05:53:48;24.90;50.90
27016;DHT22;14557;0.000;0.000;2022-08-11T05:56:33;24.90;50.90
27016;DHT22;14557;0.000;0.000;2022-08-11T05:59:10;24.90;51.00
27016;DHT22;14557;0.000;0.000;2022-08-11T06:01:36;24.90;50.90
27016;DHT22;14557;0.000;0.000;2022-08-11T06:04:04;24.90;51.00
27016;DHT22;14557;0.000;0.000;2022-08-11T06:07:01;24.90;51.00
27016;DHT22;14557;0.000;0.000;2022-08-11T06:09:47;24.90;51.00
27016;DHT22;14557;0.000;0.000;2022-08-11T06:12:16;24.90;51.10
27016;DHT22;14557;0.000;0.000;2022-08-11T06:14:42;24.80;51.00
27016;DHT22;14557;0.000;0.000;2022-08-11T06:17:08;24.90;51.00
27016;DHT22;14557;0.000;0.000;2022-08-11T06:19:41;24.80;51.00
27016;DHT22;14557;0.000;0.000;2022-08-11T06:22:11;24.80;51.00
27016;DHT22;14557;0.000;0.000;2022-08-11T06:24:39;24.80;51.10
27016;DHT22;14557;0.000;0.000;2022-08-11T06:27:05;24.90;51.20
27016;DHT22;14557;0.000;0.000;2022-08-11T06:29:32;24.80;51.10
27016;DHT22;14557;0.000;0.000;2022-08-11T06:32:01;24.80;51.10
27016;DHT22;14557;0.000;0.000;2022-08-11T06:34:32;24.80;51.10
27016;DHT22;14557;0.000;0.000;2022-08-11T06:37:13;24.80;51.10
27016;DHT22;14557;0.000;0.000;2022-08-11T06:45:06;24.80;51.10
27016;DHT22;14557;0.000;0.000;2022-08-11T06:47:33;24.80;51.20
27016;DHT22;14557;0.000;0.000;2022-08-11T06:49:59;24.80;51.20
27016;DHT22;14557;0.000;0.000;2022-08-11T06:52:44;24.80;51.10
27016;DHT22;14557;0.000;0.000;2022-08-11T06:55:12;24.80;51.20
27016;DHT22;14557;0.000;0.000;2022-08-11T06:57:39;24.80;51.20
27016;DHT22;14557;0.000;0.000;2022-08-11T07:00:27;24.80;51.20
27016;DHT22;14557;0.000;0.000;2022-08-11T07:08:01;24.80;51.20
27016;DHT22;14557;0.000;0.000;2022-08-11T07:13:47;24.80;51.30
27016;DHT22;14557;0.000;0.000;2022-08-11T07:16:35;24.80;51.30
27016;DHT22;14557;0.000;0.000;2022-08-11T07:19:04;24.80;51.20
27016;DHT22;14557;0.000;0.000;2022-08-11T07:21:49;24.80;51.20
27016;DHT22;14557;0.000;0.000;2022-08-11T07:24:34;24.80;51.10
27016;DHT22;14557;0.000;0.000;2022-08-11T07:27:19;24.80;51.20
27016;DHT22;14557;0.000;0.000;2022-08-11T07:30:05;24.80;51.30
27016;DHT22;14557;0.000;0.000;2022-08-11T07:32:32;24.80;51.30
27016;DHT22;14557;0.000;0.000;2022-08-11T07:35:02;24.80;51.30
27016;DHT22;14557;0.000;0.000;2022-08-11T07:37:31;24.90;51.40
27016;DHT22;14557;0.000;0.000;2022-08-11T07:39:57;24.90;51.30
27016;DHT22;14557;0.000;0.000;2022-08-11T07:42:26;24.90;51.30
27016;DHT22;14557;0.000;0.000;2022-08-11T07:44:52;24.90;51.30
27016;DHT22;14557;0.000;0.000;2022-08-11T07:47:38;24.90;51.20
27016;DHT22;14557;0.000;0.000;2022-08-11T07:50:22;24.90;51.20
27016;DHT22;14557;0.000;0.000;2022-08-11T07:53:07;24.90;51.20
27016;DHT22;14557;0.000;0.000;2022-08-11T07:55:32;24.90;51.20
27016;DHT22;14557;0.000;0.000;2022-08-11T07:57:59;25.00;51.20
27016;DHT22;14557;0.000;0.000;2022-08-11T08:00:50;25.00;51.20
27016;DHT22;14557;0.000;0.000;2022-08-11T08:03:35;25.00;51.20
27016;DHT22;14557;0.000;0.000;2022-08-11T08:06:20;25.00;51.10
27016;DHT22;14557;0.000;0.000;2022-08-11T08:09:04;25.00;51.10
27016;DHT22;14557;0.000;0.000;2022-08-11T08:11:49;25.10;51.10
27016;DHT22;14557;0.000;0.000;2022-08-11T08:14:34;25.10;51.00
27016;DHT22;14557;0.000;0.000;2022-08-11T08:17:19;25.10;51.20
27016;DHT22;14557;0.000;0.000;2022-08-11T08:20:04;25.00;50.90
27016;DHT22;14557;0.000;0.000;2022-08-11T08:22:31;25.00;50.50
27016;DHT22;14557;0.000;0.000;2022-08-11T08:24:57;24.90;50.90
27016;DHT22;14557;0.000;0.000;2022-08-11T08:27:23;24.90;51.40
27016;DHT22;14557;0.000;0.000;2022-08-11T08:29:50;24.90;54.40
27016;DHT22;14557;0.000;0.000;2022-08-11T08:32:42;25.00;53.00
27016;DHT22;14557;0.000;0.000;2022-08-11T08:35:09;24.90;51.60
27016;DHT22;14557;0.000;0.000;2022-08-11T08:37:35;24.80;51.00
27016;DHT22;14557;0.000;0.000;2022-08-11T08:40:01;24.80;50.60
27016;DHT22;14557;0.000;0.000;2022-08-11T08:42:29;24.70;50.40
27016;DHT22;14557;0.000;0.000;2022-08-11T08:45:05;24.70;50.40
27016;DHT22;14557;0.000;0.000;2022-08-11T08:47:34;24.70;50.40
27016;DHT22;14557;0.000;0.000;2022-08-11T08:50:01;24.70;52.00
27016;DHT22;14557;0.000;0.000;2022-08-11T08:52:28;24.70;51.00
27016;DHT22;14557;0.000;0.000;2022-08-11T08:54:55;24.70;51.00
27016;DHT22;14557;0.000;0.000;2022-08-11T08:57:21;24.70;51.00
27016;DHT22;14557;0.000;0.000;2022-08-11T08:59:48;24.70;52.30
27016;DHT22;14557;0.000;0.000;2022-08-11T09:02:14;24.70;51.50
27016;DHT22;14557;0.000;0.000;2022-08-11T09:04:42;24.70;51.50
27016;DHT22;14557;0.000;0.000;2022-08-11T09:07:09;24.80;52.20
27016;DHT22;14557;0.000;0.000;2022-08-11T09:09:48;24.80;52.40
27016;DHT22;14557;0.000;0.000;2022-08-11T09:12:14;24.70;51.40
27016;DHT22;14557;0.000;0.000;2022-08-11T09:14:42;24.80;51.60
27016;DHT22;14557;0.000;0.000;2022-08-11T09:20:02;24.80;51.10
27016;DHT22;14557;0.000;0.000;2022-08-11T09:22:29;24.90;51.20
27016;DHT22;14557;0.000;0.000;2022-08-11T09:25:14;24.80;50.20
27016;DHT22;14557;0.000;0.000;2022-08-11T09:27:58;24.80;50.60
27016;DHT22;14557;0.000;0.000;2022-08-11T09:30:25;24.90;49.60
27016;DHT22;14557;0.000;0.000;2022-08-11T09:32:52;24.90;48.50
27016;DHT22;14557;0.000;0.000;2022-08-11T09:35:29;24.80;48.00
27016;DHT22;14557;0.000;0.000;2022-08-11T09:37:55;24.40;47.70
27016;DHT22;14557;0.000;0.000;2022-08-11T09:40:41;24.20;48.30
27016;DHT22;14557;0.000;0.000;2022-08-11T09:43:09;24.10;49.30
27016;DHT22;14557;0.000;0.000;2022-08-11T09:45:54;24.20;49.40
27016;DHT22;14557;0.000;0.000;2022-08-11T09:48:25;24.30;49.40
27016;DHT22;14557;0.000;0.000;2022-08-11T09:50:53;24.50;49.30
27016;DHT22;14557;0.000;0.000;2022-08-11T09:53:19;24.60;49.10
27016;DHT22;14557;0.000;0.000;2022-08-11T09:55:45;24.70;49.00
27016;DHT22;14557;0.000;0.000;2022-08-11T09:58:11;24.80;49.60
27016;DHT22;14557;0.000;0.000;2022-08-11T10:00:44;24.80;49.00
27016;DHT22;14557;0.000;0.000;2022-08-11T10:03:12;24.90;49.20
27016;DHT22;14557;0.000;0.000;2022-08-11T10:05:40;24.90;49.50
27016;DHT22;14557;0.000;0.000;2022-08-11T10:08:27;25.00;50.20
27016;DHT22;14557;0.000;0.000;2022-08-11T10:10:54;25.00;49.80
27016;DHT22;14557;0.000;0.000;2022-08-11T10:13:21;25.00;50.50
27016;DHT22;14557;0.000;0.000;2022-08-11T10:15:52;25.00;49.70
27016;DHT22;14557;0.000;0.000;2022-08-11T10:18:20;24.90;49.40
27016;DHT22;14557;0.000;0.000;2022-08-11T10:23:52;24.70;50.20
27016;DHT22;14557;0.000;0.000;2022-08-11T10:26:37;24.50;50.40
27016;DHT22;14557;0.000;0.000;2022-08-11T10:29:39;24.50;50.90
27016;DHT22;14557;0.000;0.000;2022-08-11T10:32:23;24.70;50.80
27016;DHT22;14557;0.000;0.000;2022-08-11T10:35:08;24.80;50.60
27016;DHT22;14557;0.000;0.000;2022-08-11T10:37:36;24.90;50.50
27016;DHT22;14557;0.000;0.000;2022-08-11T10:40:03;24.90;50.30
27016;DHT22;14557;0.000;0.000;2022-08-11T10:42:30;24.90;50.20
27016;DHT22;14557;0.000;0.000;2022-08-11T10:45:14;25.00;50.20
27016;DHT22;14557;0.000;0.000;2022-08-11T10:47:59;25.00;50.20
27016;DHT22;14557;0.000;0.000;2022-08-11T10:50:26;25.00;50.20
27016;DHT22;14557;0.000;0.000;2022-08-11T10:53:11;25.00;50.20
27016;DHT22;14557;0.000;0.000;2022-08-11T10:55:55;25.00;50.00
27016;DHT22;14557;0.000;0.000;2022-08-11T10:58:39;25.00;49.50
27016;DHT22;14557;0.000;0.000;2022-08-11T11:01:26;25.10;48.80
27016;DHT22;14557;0.000;0.000;2022-08-11T11:04:05;25.10;48.50
27016;DHT22;14557;0.000;0.000;2022-08-11T11:09:27;25.10;46.80
27016;DHT22;14557;0.000;0.000;2022-08-11T11:12:05;25.10;46.10
27016;DHT22;14557;0.000;0.000;2022-08-11T11:14:52;25.20;46.50
27016;DHT22;14557;0.000;0.000;2022-08-11T11:17:42;25.20;46.40
27016;DHT22;14557;0.000;0.000;2022-08-11T11:20:34;25.20;46.20
27016;DHT22;14557;0.000;0.000;2022-08-11T11:23:02;25.20;45.70
27016;DHT22;14557;0.000;0.000;2022-08-11T11:30:45;25.30;43.70
27016;DHT22;14557;0.000;0.000;2022-08-11T11:33:21;25.20;42.50
27016;DHT22;14557;0.000;0.000;2022-08-11T11:36:01;25.30;42.30
27016;DHT22;14557;0.000;0.000;2022-08-11T11:38:32;25.20;42.60
27016;DHT22;14557;0.000;0.000;2022-08-11T11:40:57;25.30;42.60
27016;DHT22;14557;0.000;0.000;2022-08-11T11:43:42;25.30;42.60
27016;DHT22;14557;0.000;0.000;2022-08-11T11:46:08;25.30;42.70
27016;DHT22;14557;0.000;0.000;2022-08-11T11:48:35;25.30;42.80
27016;DHT22;14557;0.000;0.000;2022-08-11T11:51:01;25.30;42.70
27016;DHT22;14557;0.000;0.000;2022-08-11T11:53:27;25.30;42.30
27016;DHT22;14557;0.000;0.000;2022-08-11T11:55:53;25.40;42.80
27016;DHT22;14557;0.000;0.000;2022-08-11T11:58:19;25.40;42.60
27016;DHT22;14557;0.000;0.000;2022-08-11T12:01:03;25.40;42.90
27016;DHT22;14557;0.000;0.000;2022-08-11T12:03:42;25.40;42.60
27016;DHT22;14557;0.000;0.000;2022-08-11T12:06:09;25.50;42.60
27016;DHT22;14557;0.000;0.000;2022-08-11T12:08:38;25.50;42.40
27016;DHT22;14557;0.000;0.000;2022-08-11T12:11:08;25.50;42.20
27016;DHT22;14557;0.000;0.000;2022-08-11T12:13:53;25.50;42.50
27016;DHT22;14557;0.000;0.000;2022-08-11T12:16:20;25.50;41.90
27016;DHT22;14557;0.000;0.000;2022-08-11T12:18:48;25.60;41.90
27016;DHT22;14557;0.000;0.000;2022-08-11T12:21:15;25.60;42.10
27016;DHT22;14557;0.000;0.000;2022-08-11T12:23:41;25.60;41.10
27016;DHT22;14557;0.000;0.000;2022-08-11T12:26:26;25.70;42.50
27016;DHT22;14557;0.000;0.000;2022-08-11T12:29:11;25.70;41.20
27016;DHT22;14557;0.000;0.000;2022-08-11T12:31:38;25.70;40.80
27016;DHT22;14557;0.000;0.000;2022-08-11T12:34:08;25.80;41.20
27016;DHT22;14557;0.000;0.000;2022-08-11T12:36:35;25.80;40.20
27016;DHT22;14557;0.000;0.000;2022-08-11T12:39:02;25.80;40.60
27016;DHT22;14557;0.000;0.000;2022-08-11T12:41:29;25.90;42.70
27016;DHT22;14557;0.000;0.000;2022-08-11T12:44:13;25.90;42.30
27016;DHT22;14557;0.000;0.000;2022-08-11T12:46:58;25.90;39.40
27016;DHT22;14557;0.000;0.000;2022-08-11T12:49:26;25.90;41.00
27016;DHT22;14557;0.000;0.000;2022-08-11T12:52:15;26.00;42.60
27016;DHT22;14557;0.000;0.000;2022-08-11T12:57:13;26.20;45.00
27016;DHT22;14557;0.000;0.000;2022-08-11T13:00:01;26.20;43.40
27016;DHT22;14557;0.000;0.000;2022-08-11T13:02:46;26.30;45.30
27016;DHT22;14557;0.000;0.000;2022-08-11T13:05:31;26.30;42.80
27016;DHT22;14557;0.000;0.000;2022-08-11T13:07:57;26.40;42.60
27016;DHT22;14557;0.000;0.000;2022-08-11T13:10:24;26.40;42.10
27016;DHT22;14557;0.000;0.000;2022-08-11T13:13:09;26.40;42.50
27016;DHT22;14557;0.000;0.000;2022-08-11T13:15:34;26.40;42.60
27016;DHT22;14557;0.000;0.000;2022-08-11T13:18:00;26.40;42.50
27016;DHT22;14557;0.000;0.000;2022-08-11T13:20:26;26.40;43.20
27016;DHT22;14557;0.000;0.000;2022-08-11T13:22:53;26.40;43.70
27016;DHT22;14557;0.000;0.000;2022-08-11T13:25:20;26.40;44.40
27016;DHT22;14557;0.000;0.000;2022-08-11T13:27:47;26.40;45.50
27016;DHT22;14557;0.000;0.000;2022-08-11T13:30:14;26.40;54.20
27016;DHT22;14557;0.000;0.000;2022-08-11T13:32:58;26.40;54.50
27016;DHT22;14557;0.000;0.000;2022-08-11T13:35:25;26.40;50.30
27016;DHT22;14557;0.000;0.000;2022-08-11T13:37:51;26.40;49.10
27016;DHT22;14557;0.000;0.000;2022-08-11T13:40:19;26.40;48.80
27016;DHT22;14557;0.000;0.000;2022-08-11T13:42:45;26.40;49.00
27016;DHT22;14557;0.000;0.000;2022-08-11T13:45:12;26.40;48.70
27016;DHT22;14557;0.000;0.000;2022-08-11T13:47:38;26.40;48.60
27016;DHT22;14557;0.000;0.000;2022-08-11T13:50:07;26.40;48.60
27016;DHT22;14557;0.000;0.000;2022-08-11T13:52:34;26.40;48.80
27016;DHT22;14557;0.000;0.000;2022-08-11T13:55:00;26.40;48.90
27016;DHT22;14557;0.000;0.000;2022-08-11T13:57:26;26.40;49.10
27016;DHT22;14557;0.000;0.000;2022-08-11T13:59:54;26.40;49.10
27016;DHT22;14557;0.000;0.000;2022-08-11T14:02:34;26.40;49.30
27016;DHT22;14557;0.000;0.000;2022-08-11T14:05:02;26.40;49.60
27016;DHT22;14557;0.000;0.000;2022-08-11T14:07:33;26.40;50.00
27016;DHT22;14557;0.000;0.000;2022-08-11T14:09:59;26.40;50.10
27016;DHT22;14557;0.000;0.000;2022-08-11T14:12:26;26.40;50.60
27016;DHT22;14557;0.000;0.000;2022-08-11T14:17:44;26.40;51.00
27016;DHT22;14557;0.000;0.000;2022-08-11T14:20:13;26.40;52.00
27016;DHT22;14557;0.000;0.000;2022-08-11T14:22:40;26.40;54.30
27016;DHT22;14557;0.000;0.000;2022-08-11T14:25:07;26.50;54.30
27016;DHT22;14557;0.000;0.000;2022-08-11T14:27:33;26.50;54.40
27016;DHT22;14557;0.000;0.000;2022-08-11T14:29:59;26.50;54.50
27016;DHT22;14557;0.000;0.000;2022-08-11T14:32:25;26.50;55.70
27016;DHT22;14557;0.000;0.000;2022-08-11T14:34:51;26.50;55.50
27016;DHT22;14557;0.000;0.000;2022-08-11T14:37:19;26.50;54.70
27016;DHT22;14557;0.000;0.000;2022-08-11T14:39:47;26.50;55.20
27016;DHT22;14557;0.000;0.000;2022-08-11T14:42:15;26.50;54.40
27016;DHT22;14557;0.000;0.000;2022-08-11T14:45:01;26.50;53.80
27016;DHT22;14557;0.000;0.000;2022-08-11T14:47:46;26.50;51.90
27016;DHT22;14557;0.000;0.000;2022-08-11T14:50:14;26.50;50.10
27016;DHT22;14557;0.000;0.000;2022-08-11T14:52:42;26.50;49.50
27016;DHT22;14557;0.000;0.000;2022-08-11T14:55:08;26.50;49.10
27016;DHT22;14557;0.000;0.000;2022-08-11T14:57:53;26.50;51.50
27016;DHT22;14557;0.000;0.000;2022-08-11T15:00:20;26.50;51.10
27016;DHT22;14557;0.000;0.000;2022-08-11T15:02:46;26.50;52.80
27016;DHT22;14557;0.000;0.000;2022-08-11T15:05:31;26.50;52.30
27016;DHT22;14557;0.000;0.000;2022-08-11T15:07:57;26.40;52.10
27016;DHT22;14557;0.000;0.000;2022-08-11T15:10:23;26.40;51.60
27016;DHT22;14557;0.000;0.000;2022-08-11T15:12:49;26.50;51.30
27016;DHT22;14557;0.000;0.000;2022-08-11T15:15:15;26.50;50.20
27016;DHT22;14557;0.000;0.000;2022-08-11T15:18:01;26.50;51.80
27016;DHT22;14557;0.000;0.000;2022-08-11T15:20:28;26.50;52.80
27016;DHT22;14557;0.000;0.000;2022-08-11T15:23:13;26.50;51.90
27016;DHT22;14557;0.000;0.000;2022-08-11T15:25:58;26.60;51.20
27016;DHT22;14557;0.000;0.000;2022-08-11T15:28:26;26.60;51.00
27016;DHT22;14557;0.000;0.000;2022-08-11T15:31:11;26.60;51.30
27016;DHT22;14557;0.000;0.000;2022-08-11T15:33:54;26.60;50.80
27016;DHT22;14557;0.000;0.000;2022-08-11T15:36:40;26.70;51.50
27016;DHT22;14557;0.000;0.000;2022-08-11T15:39:27;26.70;51.30
27016;DHT22;14557;0.000;0.000;2022-08-11T15:42:06;26.70;51.10
27016;DHT22;14557;0.000;0.000;2022-08-11T15:44:53;26.70;51.60
27016;DHT22;14557;0.000;0.000;2022-08-11T15:47:40;26.70;51.60
27016;DHT22;14557;0.000;0.000;2022-08-11T15:50:06;26.70;51.50
27016;DHT22;14557;0.000;0.000;2022-08-11T15:52:36;26.70;52.30
27016;DHT22;14557;0.000;0.000;2022-08-11T15:55:06;26.80;51.40
27016;DHT22;14557;0.000;0.000;2022-08-11T15:57:32;26.80;51.50
27016;DHT22;14557;0.000;0.000;2022-08-11T16:00:16;26.80;51.30
27016;DHT22;14557;0.000;0.000;2022-08-11T16:03:01;26.80;50.50
27016;DHT22;14557;0.000;0.000;2022-08-11T16:05:46;26.90;51.10
27016;DHT22;14557;0.000;0.000;2022-08-11T16:08:14;26.90;51.30
27016;DHT22;14557;0.000;0.000;2022-08-11T16:10:41;27.00;51.80
27016;DHT22;14557;0.000;0.000;2022-08-11T16:13:07;27.00;52.80
27016;DHT22;14557;0.000;0.000;2022-08-11T16:15:35;27.00;55.20
27016;DHT22;14557;0.000;0.000;2022-08-11T16:18:21;27.00;52.80
27016;DHT22;14557;0.000;0.000;2022-08-11T16:20:49;27.10;52.50
27016;DHT22;14557;0.000;0.000;2022-08-11T16:23:16;27.10;52.60
27016;DHT22;14557;0.000;0.000;2022-08-11T16:25:42;27.20;52.50
27016;DHT22;14557;0.000;0.000;2022-08-11T16:28:09;27.20;52.70
27016;DHT22;14557;0.000;0.000;2022-08-11T16:30:37;27.20;52.30
27016;DHT22;14557;0.000;0.000;2022-08-11T16:33:03;27.20;54.00
27016;DHT22;14557;0.000;0.000;2022-08-11T16:35:31;27.20;59.60
27016;DHT22;14557;0.000;0.000;2022-08-11T16:38:16;27.20;61.40
27016;DHT22;14557;0.000;0.000;2022-08-11T16:41:02;27.30;61.90
27016;DHT22;14557;0.000;0.000;2022-08-11T16:43:29;27.40;65.50
27016;DHT22;14557;0.000;0.000;2022-08-11T16:46:15;27.40;66.50
27016;DHT22;14557;0.000;0.000;2022-08-11T16:49:01;27.50;67.30
27016;DHT22;14557;0.000;0.000;2022-08-11T16:51:27;27.60;59.60
27016;DHT22;14557;0.000;0.000;2022-08-11T16:53:53;27.70;58.80
27016;DHT22;14557;0.000;0.000;2022-08-11T16:56:19;27.70;47.30
27016;DHT22;14557;0.000;0.000;2022-08-11T16:58:54;27.60;45.40
27016;DHT22;14557;0.000;0.000;2022-08-11T17:07:04;27.30;44.90
27016;DHT22;14557;0.000;0.000;2022-08-11T17:09:49;27.20;45.30
27016;DHT22;14557;0.000;0.000;2022-08-11T17:12:34;27.30;45.20
27016;DHT22;14557;0.000;0.000;2022-08-11T17:15:21;27.20;45.20
27016;DHT22;14557;0.000;0.000;2022-08-11T17:18:06;27.20;45.20
27016;DHT22;14557;0.000;0.000;2022-08-11T17:20:34;27.20;45.50
27016;DHT22;14557;0.000;0.000;2022-08-11T17:23:02;27.20;45.10
27016;DHT22;14557;0.000;0.000;2022-08-11T17:25:47;27.20;44.40
27016;DHT22;14557;0.000;0.000;2022-08-11T17:28:14;27.10;44.90
27016;DHT22;14557;0.000;0.000;2022-08-11T17:30:40;27.10;45.20
27016;DHT22;14557;0.000;0.000;2022-08-11T17:33:25;27.00;45.10
27016;DHT22;14557;0.000;0.000;2022-08-11T17:36:10;27.00;45.10
27016;DHT22;14557;0.000;0.000;2022-08-11T17:38:36;27.00;45.30
27016;DHT22;14557;0.000;0.000;2022-08-11T17:41:02;27.00;45.50
27016;DHT22;14557;0.000;0.000;2022-08-11T17:43:48;27.00;45.30
27016;DHT22;14557;0.000;0.000;2022-08-11T17:46:33;27.00;45.10
27016;DHT22;14557;0.000;0.000;2022-08-11T17:49:17;26.90;45.00
27016;DHT22;14557;0.000;0.000;2022-08-11T17:51:44;27.00;45.20
27016;DHT22;14557;0.000;0.000;2022-08-11T17:54:30;26.90;45.20
27016;DHT22;14557;0.000;0.000;2022-08-11T17:57:14;26.90;45.60
27016;DHT22;14557;0.000;0.000;2022-08-11T17:59:59;26.80;45.70
27016;DHT22;14557;0.000;0.000;2022-08-11T18:02:29;26.80;46.20
27016;DHT22;14557;0.000;0.000;2022-08-11T18:05:14;26.80;46.20
27016;DHT22;14557;0.000;0.000;2022-08-11T18:07:42;26.80;46.00
27016;DHT22;14557;0.000;0.000;2022-08-11T18:10:27;26.80;45.60
27016;DHT22;14557;0.000;0.000;2022-08-11T18:13:12;26.70;45.80
27016;DHT22;14557;0.000;0.000;2022-08-11T18:15:57;26.70;46.10
27016;DHT22;14557;0.000;0.000;2022-08-11T18:18:41;26.70;46.40
27016;DHT22;14557;0.000;0.000;2022-08-11T18:21:26;26.70;46.60
27016;DHT22;14557;0.000;0.000;2022-08-11T18:24:11;26.70;46.50
27016;DHT22;14557;0.000;0.000;2022-08-11T18:26:57;26.70;46.40
27016;DHT22;14557;0.000;0.000;2022-08-11T18:29:43;26.60;46.60
27016;DHT22;14557;0.000;0.000;2022-08-11T18:32:28;26.60;46.80
27016;DHT22;14557;0.000;0.000;2022-08-11T18:35:14;26.60;47.60
27016;DHT22;14557;0.000;0.000;2022-08-11T18:37:59;26.60;49.20
27016;DHT22;14557;0.000;0.000;2022-08-11T18:40:44;26.70;48.80
27016;DHT22;14557;0.000;0.000;2022-08-11T18:43:30;26.70;47.70
27016;DHT22;14557;0.000;0.000;2022-08-11T18:46:15;26.80;49.40
27016;DHT22;14557;0.000;0.000;2022-08-11T18:49:01;26.80;49.80
27016;DHT22;14557;0.000;0.000;2022-08-11T18:51:46;26.90;50.30
27016;DHT22;14557;0.000;0.000;2022-08-11T18:54:31;27.00;49.80
27016;DHT22;14557;0.000;0.000;2022-08-11T18:57:17;26.90;47.10
27016;DHT22;14557;0.000;0.000;2022-08-11T19:00:04;26.80;46.90
27016;DHT22;14557;0.000;0.000;2022-08-11T19:02:48;26.70;46.80
27016;DHT22;14557;0.000;0.000;2022-08-11T19:05:33;26.60;47.10
27016;DHT22;14557;0.000;0.000;2022-08-11T19:08:18;26.60;47.80
27016;DHT22;14557;0.000;0.000;2022-08-11T19:11:04;26.70;48.60
27016;DHT22;14557;0.000;0.000;2022-08-11T19:13:49;26.80;47.80
27016;DHT22;14557;0.000;0.000;2022-08-11T19:16:35;26.70;47.50
27016;DHT22;14557;0.000;0.000;2022-08-11T19:19:19;26.70;47.40
27016;DHT22;14557;0.000;0.000;2022-08-11T19:22:04;26.70;48.20
27016;DHT22;14557;0.000;0.000;2022-08-11T19:24:49;26.70;47.80
27016;DHT22;14557;0.000;0.000;2022-08-11T19:27:34;26.80;47.80
27016;DHT22;14557;0.000;0.000;2022-08-11T19:30:19;26.70;47.50
27016;DHT22;14557;0.000;0.000;2022-08-11T19:33:03;26.70;48.50
27016;DHT22;14557;0.000;0.000;2022-08-11T19:35:48;26.80;48.70
27016;DHT22;14557;0.000;0.000;2022-08-11T19:38:33;26.90;48.90
27016;DHT22;14557;0.000;0.000;2022-08-11T19:41:18;26.90;48.20
27016;DHT22;14557;0.000;0.000;2022-08-11T19:44:03;26.90;47.70
27016;DHT22;14557;0.000;0.000;2022-08-11T19:46:47;26.80;47.70
27016;DHT22;14557;0.000;0.000;2022-08-11T19:49:32;26.80;47.70
27016;DHT22;14557;0.000;0.000;2022-08-11T19:52:16;26.70;47.70
27016;DHT22;14557;0.000;0.000;2022-08-11T19:55:01;26.70;48.20
27016;DHT22;14557;0.000;0.000;2022-08-11T19:57:45;26.70;49.50
27016;DHT22;14557;0.000;0.000;2022-08-11T20:00:30;26.60;48.60
27016;DHT22;14557;0.000;0.000;2022-08-11T20:03:14;26.50;49.20
27016;DHT22;14557;0.000;0.000;2022-08-11T20:06:04;26.40;48.80